Time;durP1;ratioP1;P1;durP2;ratioP2;P2;SDS_P1;SDS_P2;PMS_P1;PMS_P2;Temp;Humidity;BMP_temperature;BMP_pressure;BME280_temperature;BME280_humidity;BME280_pressure;Samples;Min_cycle;Max_cycle;Signal;HPM_P1;HPM_P2
2022/07/11 00:02:13;;;;;;;36.63;3.22;;;;;;;23.37;51.15;99846.09;7310952;19;130545;-40
2022/07/11 00:04:39;;;;;;;37.13;3.53;;;;;;;23.38;51.84;99847.78;7312143;19;130997;-39
2022/07/11 00:07:06;;;;;;;55.75;4.72;;;;;;;23.37;50.51;99848.72;7309001;19;130013;-40
2022/07/11 00:09:32;;;;;;;29.88;2.83;;;;;;;23.38;50.97;99850.41;7310326;19;129304;-39
2022/07/11 00:11:58;;;;;;;36.77;3.30;;;;;;;23.39;50.39;99848.63;7311076;19;129634;-41
2022/07/11 00:14:24;;;;;;;36.63;3.55;;;;;;;23.39;51.19;99849.41;7312876;19;130678;-38
2022/07/11 00:16:52;;;;;;;33.33;3.30;;;;;;;23.38;50.91;99847.78;7309186;19;131235;-40
2022/07/11 00:19:17;;;;;;;36.85;3.65;;;;;;;23.38;50.66;99837.28;7309072;19;128887;-39
2022/07/11 00:21:43;;;;;;;35.47;3.40;;;;;;;23.37;51.22;99843.47;7310698;19;130502;-40
2022/07/11 00:24:08;;;;;;;38.30;3.38;;;;;;;23.38;51.27;99844.31;7310698;19;130078;-39
2022/07/11 00:26:37;;;;;;;34.90;3.27;;;;;;;23.38;51.28;99839.06;7309917;19;129609;-40
2022/07/11 00:29:03;;;;;;;34.25;3.10;;;;;;;23.37;50.88;99848.72;7309135;19;129277;-39
2022/07/11 00:31:29;;;;;;;40.97;3.90;;;;;;;23.37;50.81;99838.22;7309586;19;130132;-40
2022/07/11 00:33:55;;;;;;;12.50;1.50;;;;;;;23.39;51.34;99841.53;7311062;19;130716;-40
2022/07/11 00:36:20;;;;;;;41.87;4.03;;;;;;;23.39;50.62;99852.03;7307772;19;130382;-40
2022/07/11 00:38:46;;;;;;;31.45;3.22;;;;;;;23.40;51.60;99842.38;7310278;19;129802;-39
2022/07/11 00:41:12;;;;;;;47.33;4.32;;;;;;;23.39;50.96;99838.91;7309541;19;128995;-39
2022/07/11 00:43:39;;;;;;;33.05;3.08;;;;;;;23.41;50.76;99841.41;7308980;19;130052;-37
2022/07/11 00:46:06;;;;;;;25.10;2.28;;;;;;;23.40;50.65;99837.97;7309735;19;129336;-39
2022/07/11 00:48:32;;;;;;;;;;;;;;;23.43;53.28;99839.47;7308596;19;128957;-40
2022/07/11 00:50:58;;;;;;;38.92;3.85;;;;;;;23.38;51.29;99842.53;7305830;19;129677;-37
2022/07/11 00:53:24;;;;;;;52.10;4.65;;;;;;;23.39;51.62;99838.91;7308300;19;130039;-36
2022/07/11 00:55:55;;;;;;;36.27;3.17;;;;;;;23.39;52.00;99836.28;7308401;19;129170;-39
2022/07/11 00:58:21;;;;;;;48.78;4.22;;;;;;;23.40;51.01;99839.75;7310431;19;129727;-41
2022/07/11 01:00:46;;;;;;;38.10;3.60;;;;;;;23.39;51.20;99833.66;7307419;19;129047;-36
2022/07/11 01:03:12;;;;;;;44.70;3.72;;;;;;;23.32;51.10;99827.34;7307466;19;130497;-37
2022/07/11 01:05:37;;;;;;;44.45;3.90;;;;;;;23.38;50.87;99837.28;7308669;19;130328;-37
2022/07/11 01:08:03;;;;;;;37.03;3.17;;;;;;;23.38;50.61;99837.28;7309711;19;131445;-39
2022/07/11 01:10:29;;;;;;;58.40;4.82;;;;;;;23.40;50.83;99835.34;7307601;19;130837;-40
2022/07/11 01:12:54;;;;;;;25.08;2.60;;;;;;;23.40;51.18;99835.34;7308218;19;129981;-37
2022/07/11 01:15:20;;;;;;;34.22;3.30;;;;;;;23.30;51.54;99824.06;7308522;19;130591;-39
2022/07/11 01:17:45;;;;;;;43.97;4.03;;;;;;;23.38;51.68;99837.28;7307877;19;131152;-41
2022/07/11 01:20:11;;;;;;;33.05;3.08;;;;;;;23.30;51.87;99826.69;7307355;19;129592;-39
2022/07/11 01:22:52;;;;;;;27.52;2.47;;;;;;;23.37;52.76;99835.59;7308502;19;130226;-38
2022/07/11 01:25:30;;;;;;;43.25;3.78;;;;;;;23.36;50.82;99828.72;7308429;19;130333;-40
2022/07/11 01:28:00;;;;;;;50.53;5.00;;;;;;;23.39;52.36;99831.06;7309167;19;129209;-41
2022/07/11 01:30:27;;;;;;;50.28;4.38;;;;;;;23.38;51.08;99825.94;7305749;19;129083;-41
2022/07/11 01:32:53;;;;;;;26.85;2.83;;;;;;;23.39;51.35;99833.66;7308743;19;130173;-39
2022/07/11 01:35:19;;;;;;;51.10;4.82;;;;;;;23.29;51.60;99824.22;7308112;19;130324;-38
2022/07/11 01:37:44;;;;;;;35.13;3.35;;;;;;;23.38;51.54;99837.28;7306006;19;129296;-40
2022/07/11 01:40:10;;;;;;;24.98;2.50;;;;;;;23.37;51.70;99835.59;7306014;19;129110;-40
2022/07/11 01:42:36;;;;;;;44.47;3.95;;;;;;;23.31;51.54;99825.72;7306307;19;130293;-40
2022/07/11 01:45:01;;;;;;;20.50;2.13;;;;;;;23.39;52.33;99841.53;7308539;19;129962;-37
2022/07/11 01:47:27;;;;;;;50.57;4.53;;;;;;;23.37;51.48;99843.47;7307276;19;130087;-38
2022/07/11 01:49:52;;;;;;;27.43;2.87;;;;;;;23.38;51.47;99842.53;7305993;19;128900;-40
2022/07/11 01:52:18;;;;;;;44.30;4.05;;;;;;;23.35;51.73;99832.34;7306972;19;129794;-39
2022/07/11 01:54:43;;;;;;;30.50;2.85;;;;;;;23.41;51.45;99846.66;7307080;19;129670;-37
2022/07/11 01:57:09;;;;;;;28.03;2.60;;;;;;;23.31;51.52;99835.38;7305194;19;129392;-39
2022/07/11 01:59:35;;;;;;;33.53;3.08;;;;;;;23.29;51.58;99832.88;7305798;19;129309;-39
2022/07/11 02:02:00;;;;;;;38.15;3.28;;;;;;;23.38;52.12;99845.16;7307034;19;130035;-38
2022/07/11 02:04:26;;;;;;;33.63;3.00;;;;;;;23.32;51.95;99843.09;7308126;19;129205;-40
2022/07/11 02:06:51;;;;;;;39.75;3.90;;;;;;;23.37;51.71;99837.44;7308295;19;128952;-39
2022/07/11 02:09:16;;;;;;;42.33;4.27;;;;;;;23.27;51.95;99823.53;7306274;19;129649;-41
2022/07/11 02:11:42;;;;;;;35.40;3.50;;;;;;;23.36;51.86;99841.84;7306347;19;129566;-38
2022/07/11 02:14:07;;;;;;;42.97;3.95;;;;;;;23.38;51.42;99833.81;7306783;19;129092;-38
2022/07/11 02:16:33;;;;;;;37.80;3.65;;;;;;;23.36;51.90;99831.34;7310520;19;129822;-39
2022/07/11 02:18:58;;;;;;;31.27;2.83;;;;;;;23.39;51.68;99838.91;7313959;19;129182;-39
2022/07/11 02:21:24;;;;;;;31.58;3.00;;;;;;;23.40;51.68;99834.50;7313460;19;129762;-35
2022/07/11 02:23:50;;;;;;;27.70;2.57;;;;;;;23.41;51.76;99836.97;7314362;19;129498;-40
2022/07/11 02:26:15;;;;;;;38.40;3.55;;;;;;;23.40;51.57;99840.59;7314189;19;129156;-39
2022/07/11 02:28:42;;;;;;;25.15;2.28;;;;;;;23.39;51.20;99835.50;7313035;19;129698;-39
2022/07/11 02:31:07;;;;;;;;;;;;;;;23.43;54.61;99840.28;7312128;19;130289;-38
2022/07/11 02:33:33;;;;;;;35.40;2.97;;;;;;;23.42;51.27;99837.81;7314288;19;129427;-39
2022/07/11 02:35:58;;;;;;;44.15;3.97;;;;;;;23.39;51.56;99844.16;7312485;19;129230;-38
2022/07/11 03:37:47;;;;;;;21.70;2.38;;;;;;;22.30;52.88;99873.56;7315730;19;131186;-77
2022/07/11 03:40:12;;;;;;;21.08;2.30;;;;;;;22.33;53.07;99862.84;7184610;19;3139237;-78
2022/07/11 03:42:38;;;;;;;15.88;1.88;;;;;;;22.34;53.04;99869.72;7345900;19;129113;-81
2022/07/11 03:45:04;;;;;;;18.70;2.47;;;;;;;22.45;53.30;99877.44;7345881;19;129933;-81
2022/07/11 03:47:30;;;;;;;25.92;2.47;;;;;;;22.53;52.73;99874.97;7345171;19;129291;-79
2022/07/11 03:49:55;;;;;;;108.10;9.10;;;;;;;22.62;52.74;99876.78;7343480;19;130201;-40
2022/07/11 03:52:20;;;;;;;19.88;2.30;;;;;;;22.69;53.37;99877.88;7345342;19;130342;-41
2022/07/11 03:54:46;;;;;;;23.13;2.38;;;;;;;22.75;53.82;99875.53;7346921;19;130212;-41
2022/07/11 03:57:11;;;;;;;28.52;2.85;;;;;;;22.83;52.66;99880.06;7343618;19;129230;-38
2022/07/11 03:59:36;;;;;;;18.25;1.90;;;;;;;22.89;52.67;99882.16;7346679;19;129183;-39
2022/07/11 04:02:02;;;;;;;13.35;1.52;;;;;;;22.94;53.46;99879.94;7345361;19;130442;-40
2022/07/11 04:04:27;;;;;;;29.33;3.33;;;;;;;22.99;53.28;99877.72;7345194;19;129718;-38
2022/07/11 04:06:53;;;;;;;26.38;2.97;;;;;;;23.03;52.62;99874.66;7341393;19;129828;-40
2022/07/11 04:09:18;;;;;;;17.10;1.92;;;;;;;23.07;53.00;99883.88;7344348;19;128921;-39
2022/07/11 04:11:43;;;;;;;25.38;2.67;;;;;;;23.11;53.61;99884.41;7341917;19;131197;-39
2022/07/11 04:14:08;;;;;;;10.35;1.15;;;;;;;23.17;51.87;99886.50;7346295;19;130780;-41
2022/07/11 04:16:34;;;;;;;25.10;2.90;;;;;;;23.20;51.57;99878.34;7340444;19;128862;-40
2022/07/11 04:18:59;;;;;;;23.02;2.70;;;;;;;23.20;51.54;99873.09;7344570;19;129024;-39
2022/07/11 04:21:26;;;;;;;39.63;4.05;;;;;;;23.20;51.29;99880.97;7334054;19;130804;-37
2022/07/11 04:23:51;;;;;;;24.90;2.75;;;;;;;23.22;50.92;99874.56;7341172;19;129736;-39
2022/07/11 04:26:16;;;;;;;22.45;2.53;;;;;;;23.24;52.13;99882.31;7343198;19;129763;-40
2022/07/11 04:28:42;;;;;;;18.98;2.10;;;;;;;23.24;50.96;99885.75;7345134;19;129526;-38
2022/07/11 04:31:07;;;;;;;9.15;1.30;;;;;;;23.27;52.57;99892.53;7344266;19;130238;-41
2022/07/11 04:33:33;;;;;;;24.80;2.58;;;;;;;23.20;51.58;99870.47;7340572;19;130568;-39
2022/07/11 04:35:58;;;;;;;28.40;2.92;;;;;;;23.26;52.26;99885.63;7341341;19;130779;-41
2022/07/11 04:38:23;;;;;;;32.22;3.33;;;;;;;23.23;50.89;99870.16;7340302;19;129008;-40
2022/07/11 04:40:50;;;;;;;22.83;2.67;;;;;;;23.31;51.26;99886.03;7345027;19;130984;-37
2022/07/11 04:43:15;;;;;;;23.70;2.57;;;;;;;23.32;52.50;99890.31;7344180;19;131492;-40
2022/07/11 04:48:01;;;;;;;35.45;3.70;;;;;;;23.30;50.35;99889.66;7278568;19;129440;-69
2022/07/11 04:50:26;;;;;;;24.40;2.72;;;;;;;23.24;51.70;99901.50;7183704;19;3096204;-72
2022/07/11 04:52:51;;;;;;;14.05;1.77;;;;;;;23.26;50.84;99901.34;7340137;19;131907;-71
2022/07/11 04:55:17;;;;;;;31.42;4.22;;;;;;;23.29;50.62;99895.84;7344189;19;129855;-72
2022/07/11 04:57:43;;;;;;;41.13;4.50;;;;;;;23.29;50.74;99906.34;7343744;19;129451;-69
2022/07/11 05:00:08;;;;;;;95.57;10.40;;;;;;;23.32;51.48;99900.00;7338965;19;129877;-70
2022/07/11 05:02:40;;;;;;;26.20;2.83;;;;;;;23.29;53.46;99898.47;7341477;19;129950;-70
2022/07/11 05:05:06;;;;;;;14.43;2.10;;;;;;;23.33;51.65;99896.41;7345555;19;130560;-72
2022/07/11 05:07:31;;;;;;;21.25;2.72;;;;;;;23.33;51.07;99905.09;7342332;19;128994;-72
2022/07/11 05:09:57;;;;;;;21.27;2.20;;;;;;;23.34;51.13;99898.88;7340723;19;129630;-70
2022/07/11 05:12:22;;;;;;;23.45;2.67;;;;;;;23.37;51.19;99909.06;7343653;19;129829;-69
2022/07/11 05:14:48;;;;;;;35.53;3.88;;;;;;;23.37;51.30;99908.28;7344434;19;132275;-70
2022/07/11 05:17:13;;;;;;;18.70;1.87;;;;;;;23.37;50.26;99906.44;7346062;19;129520;-70
2022/07/11 05:19:39;;;;;;;14.80;1.73;;;;;;;23.37;52.37;99913.53;7343727;19;129344;-38
2022/07/11 05:22:04;;;;;;;32.67;3.07;;;;;;;23.26;49.96;99890.88;7345549;19;129843;-39
2022/07/11 05:24:30;;;;;;;22.38;2.20;;;;;;;23.35;50.95;99905.78;7346088;19;129213;-41
2022/07/11 05:26:55;;;;;;;34.33;2.83;;;;;;;23.37;50.07;99918.78;7339639;19;129676;-40
2022/07/11 05:29:20;;;;;;;38.05;3.10;;;;;;;23.38;50.26;99916.00;7345613;19;129729;-39
2022/07/11 05:31:50;;;;;;;56.88;5.45;;;;;;;23.33;50.42;99915.59;7342325;19;129681;-42
2022/07/11 05:34:16;;;;;;;61.53;5.28;;;;;;;23.34;49.66;99927.72;7343406;19;130430;-39
2022/07/11 05:36:43;;;;;;;39.35;3.83;;;;;;;23.34;50.15;99927.72;7343627;19;129609;-39
2022/07/11 05:39:09;;;;;;;39.22;3.92;;;;;;;23.36;50.17;99922.34;7344626;19;129005;-40
2022/07/11 05:41:34;;;;;;;66.03;6.00;;;;;;;23.27;50.16;99912.72;7342110;19;130204;-39
2022/07/11 05:43:59;;;;;;;65.78;6.70;;;;;;;23.35;49.94;99931.19;7343207;19;130956;-39
2022/07/11 05:46:25;;;;;;;49.87;5.37;;;;;;;23.35;50.41;99926.78;7338429;19;130741;-39
2022/07/11 05:48:50;;;;;;;52.35;4.60;;;;;;;23.35;51.07;99937.28;7344658;19;130721;-39
2022/07/11 05:51:16;;;;;;;34.85;3.90;;;;;;;23.26;50.58;99917.09;7342805;19;131065;-38
2022/07/11 05:53:42;;;;;;;34.97;3.87;;;;;;;23.30;50.36;99929.00;7344591;19;131482;-39
2022/07/11 05:56:07;;;;;;;79.45;6.95;;;;;;;23.31;49.99;99935.06;7342480;19;129191;-38
2022/07/11 05:58:33;;;;;;;45.75;5.00;;;;;;;22.89;49.33;99929.34;7320195;19;130568;-39
2022/07/11 06:00:59;;;;;;;35.20;4.57;;;;;;;23.16;50.29;99947.78;7315104;19;130324;-39
2022/07/11 06:03:24;;;;;;;53.30;6.32;;;;;;;23.27;50.02;99937.13;7313001;19;130819;-37
2022/07/11 06:05:49;;;;;;;75.60;7.40;;;;;;;23.29;50.15;99937.81;7315287;19;129264;-39
2022/07/11 06:10:59;;;;;;;54.72;6.18;;;;;;;23.21;50.34;99927.19;7314641;19;129542;-42
2022/07/11 06:13:24;;;;;;;36.28;4.20;;;;;;;23.32;50.19;99944.59;7312921;19;129985;-38
2022/07/11 06:15:50;;;;;;;60.15;5.75;;;;;;;23.24;50.91;99919.03;7315380;19;131186;-39
2022/07/11 06:18:15;;;;;;;42.67;5.28;;;;;;;23.36;50.88;99940.72;7302723;19;130788;-40
2022/07/11 06:20:40;;;;;;;32.67;3.80;;;;;;;23.35;50.71;99942.53;7297185;19;131281;-39
2022/07/11 06:23:07;;;;;;;104.78;8.40;;;;;;;23.40;50.21;99937.69;7296045;19;129362;-39
2022/07/11 06:25:32;;;;;;;158.17;13.83;;;;;;;23.43;49.87;99945.25;7297336;19;129955;-42
2022/07/11 06:27:58;;;;;;;46.23;4.33;;;;;;;23.42;49.88;99937.53;7294651;19;129465;-40
2022/07/11 06:30:23;;;;;;;233.20;21.13;;;;;;;23.47;50.14;99941.34;7296268;19;130322;-40
2022/07/11 06:32:48;;;;;;;28.88;3.35;;;;;;;23.42;49.89;99938.34;7305730;19;130784;-38
2022/07/11 06:35:14;;;;;;;62.15;5.53;;;;;;;23.41;49.85;99936.69;7309863;19;129173;-40
2022/07/11 06:37:39;;;;;;;55.65;5.20;;;;;;;23.41;49.53;99930.63;7310724;19;129889;-41
2022/07/11 06:40:09;;;;;;;46.58;4.57;;;;;;;23.40;48.94;99942.94;7311525;19;129478;-42
2022/07/11 06:42:36;;;;;;;35.25;3.58;;;;;;;23.41;48.54;99935.88;7315421;19;130723;-39
2022/07/11 06:45:01;;;;;;;49.77;4.53;;;;;;;23.36;49.79;99936.28;7312418;19;130046;-38
2022/07/11 06:47:26;;;;;;;17.25;2.08;;;;;;;23.42;49.87;99946.22;7310301;19;129178;-39
2022/07/11 06:49:52;;;;;;;29.98;2.83;;;;;;;23.43;48.98;99939.19;7313524;19;129635;-38
2022/07/11 06:52:17;;;;;;;47.33;3.97;;;;;;;23.39;49.27;99943.88;7310580;19;130997;-40
2022/07/11 06:54:42;;;;;;;34.65;3.22;;;;;;;23.43;49.68;99947.88;7309130;19;129442;-40
2022/07/11 06:57:08;;;;;;;34.78;3.60;;;;;;;23.41;48.41;99946.34;7311649;19;129413;-41
2022/07/11 06:59:33;;;;;;;49.83;4.07;;;;;;;23.36;49.19;99952.03;7311033;19;129474;-38
2022/07/11 07:01:59;;;;;;;37.80;3.47;;;;;;;23.42;48.25;99956.72;7312912;19;130231;-37
2022/07/11 07:04:25;;;;;;;18.40;2.13;;;;;;;23.43;48.47;99955.75;7310644;19;130055;-38
2022/07/11 07:06:50;;;;;;;26.57;2.53;;;;;;;23.43;48.93;99953.13;7310018;19;129160;-37
2022/07/11 07:09:15;;;;;;;38.50;3.72;;;;;;;23.43;48.06;99958.38;7311145;19;129023;-39
2022/07/11 07:11:41;;;;;;;34.67;2.97;;;;;;;23.45;48.39;99953.81;7310713;19;130123;-38
2022/07/11 07:14:06;;;;;;;40.20;3.65;;;;;;;23.44;48.28;99957.41;7312736;19;128892;-37
2022/07/11 07:16:32;;;;;;;34.90;3.33;;;;;;;23.48;48.63;99953.53;7309918;19;130422;-38
2022/07/11 07:18:57;;;;;;;22.75;2.13;;;;;;;23.46;47.97;99955.47;7312963;19;130253;-38
2022/07/11 07:21:23;;;;;;;35.78;3.42;;;;;;;23.45;47.89;99956.44;7312284;19;130387;-38
2022/07/11 07:23:48;;;;;;;28.63;3.10;;;;;;;23.42;48.09;99961.94;7313869;19;129506;-39
2022/07/11 07:26:14;;;;;;;30.70;2.87;;;;;;;23.39;48.47;99959.63;7312132;19;129620;-40
2022/07/11 07:28:39;;;;;;;29.23;3.05;;;;;;;23.36;48.60;99961.69;7310536;19;129996;-39
2022/07/11 07:31:06;;;;;;;40.78;3.70;;;;;;;23.40;48.56;99963.91;7308320;19;130653;-39
2022/07/11 07:33:31;;;;;;;37.72;3.10;;;;;;;23.37;47.82;99966.00;7310402;19;131003;-38
2022/07/11 07:35:57;;;;;;;30.55;2.97;;;;;;;23.39;48.73;99967.50;7313984;19;129539;-38
2022/07/11 07:38:22;;;;;;;40.72;4.10;;;;;;;23.37;47.91;99961.56;7310420;19;129433;-40
2022/07/11 07:40:47;;;;;;;23.83;2.33;;;;;;;23.34;47.99;99961.84;7312677;19;130099;-38
2022/07/11 07:43:13;;;;;;;23.05;2.47;;;;;;;23.33;47.70;99956.75;7313485;19;129034;-38
2022/07/11 07:45:38;;;;;;;33.42;2.97;;;;;;;23.34;48.28;99961.84;7313283;19;130920;-42
2022/07/11 07:48:04;;;;;;;18.55;2.08;;;;;;;23.33;47.85;99960.19;7310382;19;129539;-38
2022/07/11 07:50:30;;;;;;;35.97;3.55;;;;;;;23.22;48.25;99941.97;7312300;19;130532;-38
2022/07/11 07:52:55;;;;;;;20.40;2.22;;;;;;;23.29;47.62;99968.50;7312183;19;129572;-39
2022/07/11 07:55:20;;;;;;;31.45;3.30;;;;;;;23.33;47.75;99970.69;7312841;19;129027;-40
2022/07/11 07:57:46;;;;;;;31.00;3.03;;;;;;;23.34;47.52;99972.34;7310277;19;130326;-38
2022/07/11 08:02:55;;;;;;;24.67;2.58;;;;;;;23.33;47.85;99970.69;7311958;19;129334;-39
2022/07/11 08:05:21;;;;;;;17.58;2.10;;;;;;;23.27;47.45;99976.50;7312701;19;128919;-42
2022/07/11 08:07:47;;;;;;;36.45;3.55;;;;;;;23.24;47.82;99971.50;7307031;19;130227;-39
2022/07/11 08:10:14;;;;;;;32.60;3.17;;;;;;;23.20;48.09;99980.63;7309415;19;131017;-38
2022/07/11 08:12:40;;;;;;;36.55;3.55;;;;;;;23.27;48.19;99967.81;7309636;19;129912;-37
2022/07/11 08:15:06;;;;;;;33.10;2.80;;;;;;;23.32;47.82;99969.03;7311954;19;129997;-40
2022/07/11 08:17:31;;;;;;;26.50;2.40;;;;;;;23.32;47.33;99976.09;7309590;19;129471;-40
2022/07/11 08:19:56;;;;;;;36.05;3.42;;;;;;;23.32;47.57;99976.88;7309788;19;130415;-40
2022/07/11 08:22:22;;;;;;;33.40;2.93;;;;;;;23.23;47.39;99960.19;7309287;19;128916;-37
2022/07/11 08:24:47;;;;;;;42.53;4.00;;;;;;;23.30;47.14;99970.97;7311619;19;130377;-37
2022/07/11 08:27:13;;;;;;;20.33;2.30;;;;;;;23.25;47.56;99963.47;7308641;19;129623;-37
2022/07/11 08:29:38;;;;;;;30.10;2.78;;;;;;;23.30;47.59;99962.28;7311326;19;130346;-38
2022/07/11 08:32:04;;;;;;;39.17;3.58;;;;;;;23.33;47.58;99962.81;7310806;19;129730;-39
2022/07/11 08:34:29;;;;;;;23.67;2.50;;;;;;;23.36;48.35;99965.16;7311282;19;129067;-37
2022/07/11 08:36:54;;;;;;;42.78;4.03;;;;;;;23.29;47.48;99955.38;7309265;19;130309;-38
2022/07/11 08:39:20;;;;;;;33.65;3.03;;;;;;;23.34;47.65;99961.84;7310830;19;129284;-40
2022/07/11 08:41:45;;;;;;;22.27;2.42;;;;;;;23.37;47.78;99972.03;7309807;19;128887;-38
2022/07/11 08:44:15;;;;;;;38.97;3.72;;;;;;;23.34;48.88;99972.34;7309973;19;129068;-38
2022/07/11 08:46:41;;;;;;;37.25;3.38;;;;;;;23.35;47.44;99966.13;7306983;19;130870;-39
2022/07/11 08:49:06;;;;;;;34.83;3.27;;;;;;;23.25;47.56;99946.94;7310285;19;130363;-38
2022/07/11 08:51:32;;;;;;;45.08;4.03;;;;;;;23.37;47.08;99966.81;7306756;19;130460;-37
2022/07/11 08:53:58;;;;;;;38.47;3.63;;;;;;;23.37;46.51;99969.44;7306640;19;130647;-37
2022/07/11 08:56:26;;;;;;;27.80;2.55;;;;;;;23.37;47.24;99961.56;7307872;19;129273;-39
2022/07/11 08:58:53;;;;;;;28.08;2.67;;;;;;;23.36;47.80;99957.28;7307176;19;129955;-39
2022/07/11 09:01:25;;;;;;;26.95;2.47;;;;;;;23.38;47.72;99972.88;7309044;19;129223;-38
2022/07/11 09:03:51;;;;;;;17.85;2.10;;;;;;;23.35;47.73;99966.13;7309010;19;129013;-38
2022/07/11 09:06:16;;;;;;;36.78;3.20;;;;;;;23.36;47.00;99962.53;7309004;19;130222;-38
2022/07/11 09:08:42;;;;;;;12.35;1.92;;;;;;;23.32;46.70;99969.03;7308448;19;130421;-37
2022/07/11 09:11:08;;;;;;;43.30;3.92;;;;;;;23.32;46.69;99958.53;7309765;19;129028;-39
2022/07/11 09:13:34;;;;;;;25.40;2.53;;;;;;;23.34;47.26;99961.84;7310222;19;128737;-39
2022/07/11 09:16:05;;;;;;;42.83;3.72;;;;;;;23.32;48.27;99962.97;7308997;19;131780;-39
2022/07/11 09:18:40;;;;;;;38.67;3.33;;;;;;;23.34;48.71;99956.59;7308091;19;130208;-39
2022/07/11 09:26:43;;;;;;;28.63;2.65;;;;;;;23.36;47.01;99948.56;7309318;19;129413;-39
2022/07/11 09:29:12;;;;;;;35.25;3.70;;;;;;;23.34;47.33;99955.78;7309364;19;129423;-39
2022/07/11 09:31:39;;;;;;;27.90;2.63;;;;;;;23.29;46.99;99948.31;7309743;19;129493;-38
2022/07/11 09:34:10;;;;;;;33.03;3.20;;;;;;;23.26;46.34;99951.19;7314111;19;129123;-41
2022/07/11 09:36:46;;;;;;;25.70;2.30;;;;;;;23.23;46.54;99941.00;7316064;19;130120;-39
2022/07/11 09:39:18;;;;;;;27.02;2.80;;;;;;;23.28;47.30;99935.34;7315360;19;130942;-39
2022/07/11 09:41:46;;;;;;;32.05;2.78;;;;;;;23.27;45.88;99933.72;7316132;19;130214;-39
2022/07/11 09:44:24;;;;;;;31.05;3.00;;;;;;;23.24;48.49;99919.03;7317633;19;130195;-38
2022/07/11 09:46:50;;;;;;;;;;;;;;;23.37;49.99;99939.75;7315858;19;130982;-39
2022/07/11 09:49:17;;;;;;;39.45;3.33;;;;;;;23.35;46.27;99946.94;7316301;19;129884;-40
2022/07/11 09:51:43;;;;;;;14.45;1.77;;;;;;;23.28;45.78;99935.34;7315246;19;129779;-38
2022/07/11 09:54:10;;;;;;;34.07;3.10;;;;;;;23.32;45.89;99942.78;7316382;19;130214;-39
2022/07/11 09:56:39;;;;;;;27.08;2.63;;;;;;;23.29;46.04;99935.19;7314999;19;130143;-39
2022/07/11 09:59:06;;;;;;;24.33;2.20;;;;;;;23.33;46.24;99926.09;7315412;19;130475;-42
2022/07/11 10:01:31;;;;;;;42.60;3.88;;;;;;;23.37;45.08;99937.13;7314179;19;129196;-37
2022/07/11 10:03:58;;;;;;;41.38;3.55;;;;;;;23.23;45.15;99938.38;7310736;19;129289;-38
2022/07/11 10:06:23;;;;;;;44.37;4.07;;;;;;;23.32;45.99;99931.47;7311311;19;130225;-40
2022/07/11 10:08:51;;;;;;;34.58;3.22;;;;;;;23.32;45.58;99927.03;7310491;19;130001;-40
2022/07/11 10:11:16;;;;;;;31.58;3.20;;;;;;;23.33;46.06;99928.72;7309691;19;128967;-40
2022/07/11 10:13:43;;;;;;;53.97;4.85;;;;;;;23.34;45.68;99925.09;7308938;19;130106;-39
2022/07/11 10:16:24;;;;;;;30.17;2.47;;;;;;;23.36;46.64;99922.34;7312041;19;129569;-37
2022/07/11 10:19:02;;;;;;;33.78;3.28;;;;;;;23.32;46.93;99919.16;7312129;19;129672;-39
2022/07/11 10:21:54;;;;;;;23.63;2.25;;;;;;;23.33;47.30;99922.63;7311426;19;129457;-39
2022/07/11 10:24:56;;;;;;;34.15;2.97;;;;;;;23.36;48.17;99933.66;7314809;19;129961;-39
2022/07/11 10:27:49;;;;;;;33.35;2.88;;;;;;;23.33;47.98;99923.47;7310775;19;130056;-40
2022/07/11 10:30:40;;;;;;;25.95;2.22;;;;;;;23.34;47.61;99921.69;7314984;19;131515;-39
2022/07/11 10:33:06;;;;;;;29.27;2.58;;;;;;;23.33;46.68;99922.63;7314593;19;129223;-39
2022/07/11 10:35:32;;;;;;;42.90;3.72;;;;;;;23.34;45.91;99925.09;7314715;19;131147;-40
2022/07/11 10:37:58;;;;;;;20.73;1.90;;;;;;;23.27;45.62;99918.78;7312819;19;129249;-37
2022/07/11 10:41:00;;;;;;;24.47;2.23;;;;;;;23.27;48.66;99924.00;7315178;19;131160;-37
2022/07/11 10:43:40;;;;;;;37.47;2.85;;;;;;;23.31;47.64;99924.56;7314504;19;129013;-38
2022/07/11 10:46:08;;;;;;;35.22;3.10;;;;;;;23.29;45.59;99927.34;7314972;19;129034;-39
2022/07/11 10:49:12;;;;;;;26.00;2.22;;;;;;;23.30;48.02;99925.53;7311790;19;130054;-39
2022/07/11 10:51:41;;;;;;;39.25;3.30;;;;;;;23.26;46.41;99917.09;7309719;19;130353;-38
2022/07/11 10:54:30;;;;;;;26.77;2.53;;;;;;;23.29;49.17;99931.78;7315253;19;130330;-38
2022/07/11 10:57:07;;;;;;;25.20;2.17;;;;;;;23.17;47.90;99907.47;7311223;19;129986;-37
2022/07/11 10:59:33;;;;;;;57.15;5.40;;;;;;;23.28;45.28;99923.06;7312912;19;130398;-38
2022/07/11 11:02:11;;;;;;;19.42;1.77;;;;;;;23.29;47.55;99927.34;7312798;19;129231;-39
2022/07/11 11:04:59;;;;;;;34.00;2.92;;;;;;;23.24;49.33;99925.13;7314223;19;128976;-40
2022/07/11 11:07:27;;;;;;;23.38;1.83;;;;;;;23.28;46.84;99930.09;7313281;19;129864;-37
2022/07/11 11:09:52;;;;;;;30.27;2.53;;;;;;;23.25;45.10;99920.69;7314296;19;130209;-38
2022/07/11 11:12:18;;;;;;;20.55;1.83;;;;;;;23.29;45.06;99927.34;7312997;19;129133;-37
2022/07/11 11:14:43;;;;;;;35.40;3.03;;;;;;;23.23;45.32;99927.88;7313179;19;129095;-40
2022/07/11 11:17:34;;;;;;;31.98;2.92;;;;;;;23.23;48.95;99918.22;7312783;19;130316;-37
2022/07/11 11:20:00;;;;;;;28.52;2.30;;;;;;;23.27;44.64;99912.72;7313652;19;130374;-38
2022/07/11 11:22:28;;;;;;;15.20;1.50;;;;;;;23.24;45.47;99919.03;7313696;19;130318;-38
2022/07/11 11:24:56;;;;;;;32.03;2.75;;;;;;;23.13;45.66;99900.84;7313615;19;129030;-40
2022/07/11 11:27:24;;;;;;;23.30;1.98;;;;;;;23.22;45.21;99910.50;7311860;19;129670;-40
2022/07/11 11:29:54;;;;;;;46.63;4.07;;;;;;;23.24;45.55;99909.38;7312786;19;129522;-39
2022/07/11 11:32:29;;;;;;;26.88;2.00;;;;;;;23.22;45.16;99907.88;7313629;19;130288;-37
2022/07/11 11:34:55;;;;;;;29.60;2.20;;;;;;;23.25;45.02;99912.84;7313678;19;131454;-39
2022/07/11 11:37:21;;;;;;;27.73;2.17;;;;;;;23.26;45.60;99901.34;7312697;19;128912;-38
2022/07/11 11:39:46;;;;;;;39.35;3.03;;;;;;;23.26;45.38;99906.59;7313252;19;130554;-39
2022/07/11 11:42:17;;;;;;;36.63;3.13;;;;;;;23.27;45.13;99908.28;7311321;19;130440;-39
2022/07/11 11:44:54;;;;;;;29.50;2.22;;;;;;;23.26;46.68;99911.84;7314280;19;129198;-38
2022/07/11 11:47:20;;;;;;;27.00;1.95;;;;;;;23.23;44.79;99905.09;7310867;19;129136;-37
2022/07/11 11:49:47;;;;;;;26.92;2.40;;;;;;;23.26;44.98;99903.97;7313684;19;129169;-38
2022/07/11 11:52:13;;;;;;;34.67;2.67;;;;;;;23.24;45.21;99911.16;7311642;19;130466;-39
2022/07/11 11:54:39;;;;;;;30.98;2.38;;;;;;;23.26;44.71;99906.59;7312993;19;129763;-39
2022/07/11 11:57:11;;;;;;;47.97;3.63;;;;;;;23.27;45.23;99908.28;7310365;19;129428;-41
2022/07/11 11:59:37;;;;;;;33.65;2.55;;;;;;;23.27;45.09;99913.53;7313521;19;130243;-41
2022/07/11 12:02:03;;;;;;;24.75;1.95;;;;;;;23.20;45.16;99902.75;7312487;19;130437;-38
2022/07/11 12:04:34;;;;;;;23.23;1.70;;;;;;;23.23;46.03;99902.47;7313666;19;129300;-37
2022/07/11 12:07:01;;;;;;;34.65;2.90;;;;;;;23.25;45.12;99889.22;7312131;19;129326;-37
2022/07/11 12:09:46;;;;;;;30.73;2.40;;;;;;;23.19;44.44;99880.13;7311565;19;130845;-40
2022/07/11 12:14:56;;;;;;;28.42;2.25;;;;;;;23.24;43.95;99904.13;7313148;19;132005;-41
2022/07/11 12:17:26;;;;;;;23.85;1.80;;;;;;;23.23;45.33;99909.53;7310955;19;129481;-39
2022/07/11 12:19:52;;;;;;;35.38;2.75;;;;;;;23.27;44.47;99892.53;7310810;19;130235;-39
2022/07/11 12:22:17;;;;;;;37.40;2.78;;;;;;;23.26;44.68;99890.88;7310879;19;129627;-38
2022/07/11 12:24:50;;;;;;;25.83;2.05;;;;;;;23.28;45.91;99894.22;7312228;19;128733;-38
2022/07/11 12:27:18;;;;;;;48.67;3.70;;;;;;;23.24;44.66;99900.66;7310257;19;128872;-39
2022/07/11 12:29:49;;;;;;;33.88;2.50;;;;;;;23.23;45.14;99889.38;7313415;19;130162;-38
2022/07/11 12:32:15;;;;;;;49.35;3.83;;;;;;;23.28;44.89;99904.72;7309591;19;130327;-38
2022/07/11 12:34:40;;;;;;;27.48;2.10;;;;;;;23.31;44.47;99898.31;7312460;19;130843;-37